Time;durP1;ratioP1;P1;durP2;ratioP2;P2;SDS_P1;SDS_P2;PMS_P1;PMS_P2;Temp;Humidity;BMP_temperature;BMP_pressure;BME280_temperature;BME280_humidity;BME280_pressure;Samples;Min_cycle;Max_cycle;Signal;HPM_P1;HPM_P2
2023/06/26 00:00:34;;;;;;;8.40;5.90;;;;;;;16.60;100.00;98519.53;4180504;28;20116;-73
2023/06/26 00:02:34;;;;;;;6.05;5.45;;;;;;;16.54;100.00;98516.41;4178618;28;20474;-73
2023/06/26 00:04:37;;;;;;;15.50;5.60;;;;;;;16.50;100.00;98512.09;4178734;28;20040;-73
2023/06/26 00:06:38;;;;;;;6.75;5.57;;;;;;;16.51;100.00;98510.88;4178733;28;20375;-73
2023/06/26 00:08:38;;;;;;;7.00;5.43;;;;;;;16.49;100.00;98510.50;4176845;28;20060;-74
2023/06/26 00:10:38;;;;;;;5.55;5.03;;;;;;;16.46;100.00;98506.53;4179451;28;20533;-73
2023/06/26 00:12:39;;;;;;;6.45;5.20;;;;;;;16.41;100.00;98503.41;4179098;28;20056;-73
2023/06/26 00:14:39;;;;;;;5.60;5.00;;;;;;;16.35;100.00;98510.66;4188053;28;20377;-73
2023/06/26 00:16:39;;;;;;;14.93;5.10;;;;;;;16.30;100.00;98503.53;4187611;28;20044;-73
2023/06/26 00:18:40;;;;;;;6.18;5.18;;;;;;;16.27;100.00;98507.94;4190125;28;20068;-73
2023/06/26 00:20:40;;;;;;;7.28;5.47;;;;;;;16.23;100.00;98507.22;4181234;28;20079;-73
2023/06/26 00:22:40;;;;;;;11.05;5.32;;;;;;;16.23;100.00;98514.78;4178614;28;20468;-73
2023/06/26 00:24:41;;;;;;;5.82;5.22;;;;;;;16.17;100.00;98506.06;4176435;28;20041;-73
2023/06/26 00:26:41;;;;;;;6.28;5.40;;;;;;;16.16;100.00;98507.28;4188366;28;20080;-73
2023/06/26 00:28:41;;;;;;;8.65;5.65;;;;;;;16.10;100.00;98508.94;4189911;28;20423;-73
2023/06/26 00:30:42;;;;;;;6.25;5.57;;;;;;;16.04;100.00;98499.41;4178705;28;20045;-73
2023/06/26 00:32:42;;;;;;;7.95;6.55;;;;;;;16.04;100.00;98507.78;4183009;28;20111;-73
2023/06/26 00:34:42;;;;;;;9.45;6.35;;;;;;;16.05;100.00;98500.19;4178409;28;20047;-73
2023/06/26 00:36:43;;;;;;;9.70;6.22;;;;;;;15.99;100.00;98497.88;4177412;28;20160;-73
2023/06/26 00:38:43;;;;;;;8.27;5.70;;;;;;;15.99;100.00;98497.09;4177579;28;20072;-73
2023/06/26 00:40:43;;;;;;;7.68;5.80;;;;;;;15.96;100.00;98497.91;4177381;28;20076;-73
2023/06/26 00:42:44;;;;;;;9.10;6.03;;;;;;;15.88;100.00;98499.16;4180609;28;20624;-73
2023/06/26 00:44:44;;;;;;;8.70;5.78;;;;;;;15.82;100.00;98498.84;4176841;28;20119;-73
2023/06/26 00:46:45;;;;;;;7.15;5.68;;;;;;;15.80;100.00;98501.22;4175717;28;20060;-73
2023/06/26 00:48:48;;;;;;;6.35;5.75;;;;;;;15.75;100.00;98496.13;4180293;28;20032;-73
2023/06/26 00:50:48;;;;;;;8.18;6.15;;;;;;;15.71;100.00;98501.72;4175690;28;20118;-73
2023/06/26 00:52:48;;;;;;;7.50;5.68;;;;;;;15.74;100.00;98497.31;4175460;28;20485;-73
2023/06/26 00:54:51;;;;;;;9.10;5.80;;;;;;;15.69;100.00;98492.97;4183088;28;20052;-73
2023/06/26 00:56:51;;;;;;;8.27;5.65;;;;;;;15.63;100.00;98497.41;4183074;28;20473;-73
2023/06/26 00:58:51;;;;;;;8.23;5.28;;;;;;;15.64;100.00;98489.84;4180162;28;20553;-73
2023/06/26 01:00:52;;;;;;;9.50;6.28;;;;;;;15.61;100.00;98490.66;4188483;28;20469;-73
2023/06/26 01:02:53;;;;;;;9.27;6.60;;;;;;;15.55;100.00;98483.91;4187567;28;20075;-73
2023/06/26 01:04:53;;;;;;;6.97;5.75;;;;;;;15.50;100.00;98482.34;4186614;28;20448;-73
2023/06/26 01:06:54;;;;;;;6.57;5.30;;;;;;;15.45;100.00;98482.78;4184387;28;20029;-73
2023/06/26 01:08:55;;;;;;;10.15;6.10;;;;;;;15.42;100.00;98483.63;4185126;28;20036;-73
2023/06/26 01:10:55;;;;;;;8.57;5.78;;;;;;;15.36;100.00;98480.47;4188268;28;20074;-73
2023/06/26 01:12:57;;;;;;;11.68;6.40;;;;;;;15.36;100.00;98479.66;4185661;28;20052;-73
2023/06/26 01:14:57;;;;;;;14.57;6.57;;;;;;;15.38;100.00;98477.25;4173504;28;20394;-73
2023/06/26 01:17:01;;;;;;;8.05;6.22;;;;;;;15.32;100.00;98473.34;4175518;28;20873;-73
2023/06/26 01:19:02;;;;;;;10.90;5.97;;;;;;;15.27;100.00;98471.78;4188365;28;20465;-73
2023/06/26 01:21:04;;;;;;;8.52;6.18;;;;;;;15.29;100.00;98476.94;4185302;28;20037;-73
2023/06/26 01:23:29;;;;;;;8.30;6.00;;;;;;;15.21;100.00;98476.19;4173400;28;20156;-73
2023/06/26 01:25:38;;;;;;;8.82;6.32;;;;;;;15.18;100.00;98472.25;4179875;28;20048;-73
2023/06/26 01:27:39;;;;;;;7.80;6.53;;;;;;;15.15;100.00;98466.69;4178396;28;20076;-73
2023/06/26 01:29:41;;;;;;;9.55;6.60;;;;;;;15.09;100.00;98471.91;4175442;28;20045;-73
2023/06/26 01:31:42;;;;;;;11.32;6.65;;;;;;;15.07;100.00;98471.53;4174846;28;20049;-73
2023/06/26 01:33:43;;;;;;;9.25;6.30;;;;;;;15.02;100.00;98471.16;4173239;28;20079;-73
2023/06/26 01:35:44;;;;;;;6.97;5.97;;;;;;;14.96;100.00;98464.41;4181438;28;20135;-73
2023/06/26 01:37:44;;;;;;;7.75;6.30;;;;;;;14.97;100.00;98464.00;4176796;28;20137;-73
2023/06/26 01:39:44;;;;;;;9.35;6.45;;;;;;;14.98;100.00;98462.84;4173887;28;20464;-73
2023/06/26 01:41:45;;;;;;;7.80;5.80;;;;;;;15.04;100.00;98458.41;4184682;28;20044;-73
2023/06/26 01:44:28;;;;;;;8.48;6.18;;;;;;;15.02;100.00;98457.22;4174560;28;20033;-73
2023/06/26 01:46:45;;;;;;;8.18;5.90;;;;;;;15.00;100.00;98454.84;4106075;28;20062;-73
2023/06/26 01:48:59;;;;;;;8.73;6.65;;;;;;;14.98;100.00;98456.47;4156407;28;20073;-73
2023/06/26 01:50:59;;;;;;;7.68;6.47;;;;;;;14.90;100.00;98452.94;4182377;28;20041;-73
2023/06/26 01:53:11;;;;;;;8.40;6.18;;;;;;;14.88;100.00;98447.75;4173053;28;20067;-73
2023/06/26 01:55:21;;;;;;;11.63;7.07;;;;;;;14.86;100.00;98446.56;4176809;28;20036;-73
2023/06/26 01:57:22;;;;;;;11.13;6.50;;;;;;;14.81;100.00;98445.03;4173165;28;20139;-73
2023/06/26 01:59:25;;;;;;;7.68;6.20;;;;;;;14.76;100.00;98451.00;4173431;28;20083;-73
2023/06/26 02:01:26;;;;;;;10.98;6.35;;;;;;;14.70;100.00;98452.63;4176405;28;20056;-73
2023/06/26 02:03:26;;;;;;;8.30;6.25;;;;;;;14.71;100.00;98442.28;4176022;28;20080;-73
2023/06/26 02:05:26;;;;;;;9.38;6.30;;;;;;;14.74;100.00;98442.28;4172799;28;20069;-73
2023/06/26 02:07:27;;;;;;;10.82;6.20;;;;;;;14.71;100.00;98443.06;4173600;28;20041;-73
2023/06/26 02:09:27;;;;;;;6.78;5.65;;;;;;;14.71;100.00;98450.63;4186656;28;20379;-73
2023/06/26 02:11:27;;;;;;;11.10;6.38;;;;;;;14.68;100.00;98445.91;4178645;28;20159;-73
2023/06/26 02:13:27;;;;;;;12.10;6.22;;;;;;;14.59;100.00;98446.34;4176209;28;20273;-73
2023/06/26 02:15:28;;;;;;;9.80;6.10;;;;;;;14.54;100.00;98452.31;4177592;28;20524;-73
2023/06/26 02:17:28;;;;;;;16.70;7.20;;;;;;;14.49;100.00;98447.97;4177045;28;20065;-73
2023/06/26 02:19:28;;;;;;;14.75;5.80;;;;;;;14.44;100.00;98439.22;4172955;28;20109;-73
2023/06/26 02:21:29;;;;;;;9.70;5.68;;;;;;;14.42;100.00;98452.75;4178027;28;20044;-73
2023/06/26 02:23:29;;;;;;;8.07;6.68;;;;;;;14.38;100.00;98452.75;4172439;28;20341;-73
2023/06/26 02:25:29;;;;;;;10.68;5.80;;;;;;;14.39;100.00;98451.56;4175760;28;20053;-73
2023/06/26 02:27:29;;;;;;;9.82;6.20;;;;;;;14.39;100.00;98451.56;4178392;28;20091;-73
2023/06/26 02:29:30;;;;;;;12.95;6.50;;;;;;;14.37;100.00;98447.59;4180301;28;20036;-73
2023/06/26 02:31:30;;;;;;;11.93;6.55;;;;;;;14.32;100.00;98448.81;4181782;28;20032;-73
2023/06/26 02:33:30;;;;;;;11.23;6.50;;;;;;;14.28;100.00;98454.38;4172169;28;20068;-73
2023/06/26 02:35:32;;;;;;;7.38;5.53;;;;;;;14.28;100.00;98450.81;4176126;28;20052;-73
2023/06/26 02:37:33;;;;;;;7.97;5.63;;;;;;;14.33;100.00;98444.84;4178645;28;20053;-73
2023/06/26 02:39:34;;;;;;;9.80;5.95;;;;;;;14.31;100.00;98439.69;4181756;28;20041;-73
2023/06/26 02:41:34;;;;;;;10.68;5.97;;;;;;;14.31;100.00;98441.66;4188158;28;20232;-73
2023/06/26 02:43:35;;;;;;;12.32;6.90;;;;;;;14.30;100.00;98448.41;4186191;28;20036;-73
2023/06/26 02:45:35;;;;;;;15.40;6.15;;;;;;;14.26;100.00;98445.66;4184849;28;20135;-73
2023/06/26 02:47:39;;;;;;;9.55;6.05;;;;;;;14.23;100.00;98440.91;4187712;28;20370;-73
2023/06/26 02:49:39;;;;;;;9.88;6.05;;;;;;;14.20;100.00;98438.13;4182888;28;20373;-73
2023/06/26 02:51:39;;;;;;;8.82;6.22;;;;;;;14.18;100.00;98437.75;4172431;28;20041;-73
2023/06/26 02:53:40;;;;;;;11.02;6.22;;;;;;;14.17;100.00;98436.94;4172257;28;20049;-73
2023/06/26 02:55:40;;;;;;;11.40;6.22;;;;;;;14.18;100.00;98434.97;4177995;28;20624;-73
2023/06/26 02:57:40;;;;;;;5.82;5.15;;;;;;;14.22;100.00;98430.94;4186865;28;20386;-73
2023/06/26 02:59:41;;;;;;;12.50;6.32;;;;;;;14.30;100.00;98431.72;4187759;28;20032;-73
2023/06/26 03:01:41;;;;;;;7.57;6.20;;;;;;;14.31;100.00;98427.72;4183415;28;20401;-73
2023/06/26 03:03:41;;;;;;;10.60;6.18;;;;;;;14.33;100.00;98419.78;4190079;28;20363;-73
2023/06/26 03:05:42;;;;;;;10.88;6.93;;;;;;;14.34;100.00;98415.81;4184529;28;20041;-73
2023/06/26 03:07:42;;;;;;;12.50;6.68;;;;;;;14.32;100.00;98423.78;4176161;28;20108;-73
2023/06/26 03:09:42;;;;;;;8.65;6.88;;;;;;;14.25;100.00;98438.50;4176528;28;20037;-73
2023/06/26 03:11:42;;;;;;;9.68;6.85;;;;;;;14.28;100.00;98437.69;4183461;28;20070;-73
2023/06/26 03:13:43;;;;;;;14.00;7.32;;;;;;;14.27;100.00;98432.53;4190337;28;20045;-73
2023/06/26 03:15:43;;;;;;;9.90;6.68;;;;;;;14.29;100.00;98419.00;4185721;28;20440;-73
2023/06/26 03:17:43;;;;;;;8.88;6.68;;;;;;;14.34;100.00;98427.72;4175720;28;20033;-73
2023/06/26 03:19:44;;;;;;;8.65;6.30;;;;;;;14.32;100.00;98430.13;4176294;28;20262;-73
2023/06/26 03:21:45;;;;;;;8.77;6.43;;;;;;;14.31;100.00;98430.50;4184688;28;20441;-73
2023/06/26 03:23:45;;;;;;;10.40;6.25;;;;;;;14.30;100.00;98437.28;4181121;28;20064;-73
2023/06/26 03:25:46;;;;;;;10.30;7.25;;;;;;;14.29;100.00;98424.56;4182131;28;20137;-73
2023/06/26 03:27:46;;;;;;;32.22;7.70;;;;;;;14.31;100.00;98428.56;4176347;28;20504;-73
2023/06/26 03:29:46;;;;;;;10.25;7.47;;;;;;;14.25;100.00;98423.81;4176060;28;20041;-73
2023/06/26 03:31:47;;;;;;;9.90;7.18;;;;;;;14.19;100.00;98414.28;4183500;28;20408;-73
2023/06/26 03:33:47;;;;;;;12.60;6.30;;;;;;;14.22;100.00;98419.81;4188828;28;20049;-73
2023/06/26 03:35:47;;;;;;;9.20;6.05;;;;;;;14.26;100.00;98412.25;4182727;28;20327;-73
2023/06/26 03:37:49;;;;;;;8.77;6.97;;;;;;;14.26;100.00;98417.03;4183291;28;20052;-73
2023/06/26 03:39:49;;;;;;;12.75;6.75;;;;;;;14.24;100.00;98413.88;4184239;28;20037;-73
2023/06/26 03:41:49;;;;;;;8.18;6.43;;;;;;;14.16;100.00;98417.88;4178573;28;20101;-73
2023/06/26 03:43:50;;;;;;;13.23;6.93;;;;;;;14.12;100.00;98415.09;4175029;28;20142;-73
2023/06/26 03:45:50;;;;;;;9.80;6.70;;;;;;;14.09;100.00;98418.69;4178687;28;20053;-73
2023/06/26 03:47:50;;;;;;;10.40;6.13;;;;;;;14.08;100.00;98419.88;4181247;28;20040;-72
2023/06/26 03:49:51;;;;;;;9.57;6.70;;;;;;;14.09;100.00;98418.69;4176714;28;20044;-73
2023/06/26 03:51:51;;;;;;;10.13;6.72;;;;;;;14.12;100.00;98414.31;4181832;28;20033;-73
2023/06/26 03:53:51;;;;;;;8.93;6.00;;;;;;;14.19;100.00;98412.28;4190035;28;20036;-72
2023/06/26 03:55:52;;;;;;;10.82;6.97;;;;;;;14.25;100.00;98416.25;4179859;28;20049;-72
2023/06/26 03:57:52;;;;;;;8.90;6.30;;;;;;;14.32;100.00;98407.88;4183977;28;20524;-72
2023/06/26 03:59:53;;;;;;;11.45;6.50;;;;;;;14.39;100.00;98406.22;4175280;28;20256;-72
2023/06/26 04:01:53;;;;;;;11.15;6.78;;;;;;;14.43;100.00;98405.03;4178784;28;20045;-72
2023/06/26 04:03:54;;;;;;;14.30;7.70;;;;;;;14.52;100.00;98413.75;4181498;28;20082;-73
2023/06/26 04:05:54;;;;;;;11.35;7.45;;;;;;;14.52;100.00;98416.53;4185697;28;20120;-72
2023/06/26 04:07:54;;;;;;;7.90;6.95;;;;;;;14.58;100.00;98408.56;4184219;28;20073;-73
2023/06/26 04:09:55;;;;;;;10.63;7.60;;;;;;;14.61;100.00;98414.09;4188131;28;20458;-73
2023/06/26 04:11:55;;;;;;;9.27;6.82;;;;;;;14.65;100.00;98410.53;4187518;28;20125;-73
2023/06/26 04:13:55;;;;;;;9.00;6.50;;;;;;;14.68;100.00;98410.47;4182793;28;20045;-73
2023/06/26 04:15:56;;;;;;;9.68;6.93;;;;;;;14.73;100.00;98421.22;4178828;28;20037;-73
2023/06/26 04:17:56;;;;;;;9.38;6.65;;;;;;;14.78;100.00;98411.63;4183166;28;20088;-73
2023/06/26 04:19:56;;;;;;;13.57;7.03;;;;;;;14.82;100.00;98413.19;4171548;28;20536;-73
2023/06/26 04:21:57;;;;;;;8.63;6.47;;;;;;;14.89;100.00;98415.94;4183917;28;20048;-72
2023/06/26 04:23:57;;;;;;;11.35;7.00;;;;;;;14.94;100.00;98406.34;4175598;28;20040;-73
2023/06/26 04:25:58;;;;;;;15.82;6.63;;;;;;;15.02;100.00;98409.84;4177212;28;20036;-73
2023/06/26 04:27:58;;;;;;;11.13;7.10;;;;;;;15.10;100.00;98417.75;4178168;28;20393;-72
2023/06/26 04:29:59;;;;;;;9.00;6.63;;;;;;;15.17;100.00;98414.13;4174389;28;20147;-73
2023/06/26 04:31:59;;;;;;;12.73;6.88;;;;;;;15.23;100.00;98406.13;4177100;28;20055;-72
2023/06/26 04:33:59;;;;;;;14.73;7.18;;;;;;;15.29;100.00;98405.25;4178800;28;20380;-72
2023/06/26 04:36:03;;;;;;;14.35;7.53;;;;;;;15.38;100.00;98407.56;4181004;28;20055;-73
2023/06/26 04:38:04;;;;;;;12.55;6.90;;;;;;;15.48;100.00;98400.34;4175912;28;20056;-73
2023/06/26 04:40:06;;;;;;;10.13;7.07;;;;;;;15.57;100.00;98404.22;4179941;28;20040;-73
2023/06/26 04:42:07;;;;;;;19.83;7.93;;;;;;;15.68;100.00;98401.34;4178985;28;20512;-73
2023/06/26 04:44:07;;;;;;;11.48;7.35;;;;;;;15.80;100.00;98400.81;4173268;28;20332;-73
2023/06/26 04:46:08;;;;;;;10.32;7.45;;;;;;;15.90;100.00;98396.34;4179000;28;20119;-73
2023/06/26 04:48:09;;;;;;;11.73;7.30;;;;;;;16.02;100.00;98402.16;4176787;28;20035;-73
2023/06/26 04:50:09;;;;;;;13.68;7.78;;;;;;;16.14;100.00;98400.06;4177574;28;20013;-72
2023/06/26 04:52:09;;;;;;;15.82;8.35;;;;;;;16.24;100.00;98401.91;4178897;28;20039;-73
2023/06/26 04:54:10;;;;;;;10.32;7.25;;;;;;;16.33;100.00;98398.63;4178708;28;20052;-73
2023/06/26 04:56:11;;;;;;;16.02;8.05;;;;;;;16.42;100.00;98390.53;4165884;28;20461;-73
2023/06/26 04:58:11;;;;;;;11.75;7.43;;;;;;;16.51;100.00;98396.38;4140344;28;20037;-73
2023/06/26 05:00:12;;;;;;;8.82;6.90;;;;;;;16.61;100.00;98389.84;4171915;28;20029;-72
2023/06/26 05:02:14;;;;;;;16.80;8.35;;;;;;;16.70;100.00;98381.75;4169981;28;20719;-72
2023/06/26 05:04:15;;;;;;;11.63;7.30;;;;;;;16.83;100.00;98393.16;4170849;28;20052;-73
2023/06/26 05:06:16;;;;;;;16.17;9.43;;;;;;;16.91;100.00;98391.06;4172732;28;20024;-72
2023/06/26 05:08:26;;;;;;;16.40;8.48;;;;;;;17.02;100.00;98386.88;4176576;28;20056;-73
2023/06/26 05:10:26;;;;;;;15.95;8.68;;;;;;;17.09;100.00;98383.97;4176633;28;20477;-73
2023/06/26 05:12:26;;;;;;;16.80;8.82;;;;;;;17.19;100.00;98382.19;4175659;28;20049;-73
2023/06/26 05:14:27;;;;;;;15.73;8.40;;;;;;;17.27;100.00;98380.88;4179350;28;20052;-73
2023/06/26 05:16:27;;;;;;;20.25;8.90;;;;;;;17.36;100.00;98381.09;4181989;28;20040;-72
2023/06/26 05:18:27;;;;;;;13.45;8.30;;;;;;;17.44;100.00;98375.41;4181992;28;20041;-73
2023/06/26 05:20:27;;;;;;;15.02;9.05;;;;;;;17.53;100.00;98372.81;4176647;28;20320;-73
2023/06/26 05:22:28;;;;;;;10.40;8.57;;;;;;;17.60;100.00;98379.09;4175178;28;20040;-73
2023/06/26 05:24:30;;;;;;;13.63;9.50;;;;;;;17.71;100.00;98378.94;4175923;28;20324;-72
2023/06/26 05:26:30;;;;;;;13.48;8.70;;;;;;;17.79;100.00;98374.78;4181697;28;20084;-73
2023/06/26 05:28:31;;;;;;;12.82;9.48;;;;;;;17.86;100.00;98380.22;4180790;28;20071;-72
2023/06/26 05:30:34;;;;;;;18.48;8.90;;;;;;;17.94;100.00;98381.66;4189269;28;20048;-72
2023/06/26 05:32:38;;;;;;;16.23;10.30;;;;;;;18.02;100.00;98370.34;4177358;28;20477;-73
2023/06/26 05:34:39;;;;;;;16.10;10.32;;;;;;;18.10;100.00;98368.97;4173329;28;20033;-73
2023/06/26 05:36:42;;;;;;;11.88;9.48;;;;;;;18.17;100.00;98374.44;4174019;28;20389;-73
2023/06/26 05:38:42;;;;;;;;;;;;;;;18.24;100.00;98372.28;4188268;28;20610;-73
2023/06/26 05:40:43;;;;;;;18.92;10.70;;;;;;;18.34;100.00;98376.06;4188775;28;19916;-73
2023/06/26 05:42:44;;;;;;;13.13;10.35;;;;;;;18.42;100.00;98369.09;4186679;28;20036;-73
2023/06/26 05:44:44;;;;;;;10.85;9.10;;;;;;;18.49;100.00;98362.53;4186549;28;20172;-72
2023/06/26 05:46:46;;;;;;;12.75;9.82;;;;;;;18.58;100.00;98362.75;4174060;28;20062;-73
2023/06/26 05:48:47;;;;;;;12.90;10.07;;;;;;;18.64;100.00;98357.41;4176879;28;20120;-72
2023/06/26 05:50:47;;;;;;;12.52;9.45;;;;;;;18.71;100.00;98368.50;4175389;28;20569;-73
2023/06/26 05:52:48;;;;;;;12.23;9.63;;;;;;;18.77;100.00;98361.91;4173144;28;20351;-73
2023/06/26 05:54:49;;;;;;;13.90;9.95;;;;;;;18.84;100.00;98360.19;4173577;28;20385;-72
2023/06/26 05:56:55;;;;;;;12.55;9.75;;;;;;;18.91;100.00;98360.00;4186232;28;20037;-73
2023/06/26 05:58:57;;;;;;;13.52;10.00;;;;;;;19.00;100.00;98368.59;4189220;28;20063;-73
2023/06/26 06:00:57;;;;;;;14.95;11.13;;;;;;;19.05;100.00;98362.47;4178413;28;20665;-73
2023/06/26 06:02:57;;;;;;;12.57;10.13;;;;;;;19.13;100.00;98363.88;4169434;28;20040;-73
2023/06/26 06:04:58;;;;;;;11.88;8.52;;;;;;;19.18;100.00;98362.56;4179486;28;20041;-73
2023/06/26 06:06:58;;;;;;;15.32;9.52;;;;;;;19.26;100.00;98358.34;4173404;28;20060;-73
2023/06/26 06:08:58;;;;;;;9.65;8.43;;;;;;;19.34;100.00;98370.97;4174780;28;20178;-73
2023/06/26 06:10:59;;;;;;;10.65;8.25;;;;;;;19.42;100.00;98366.75;4171624;28;20264;-73
2023/06/26 06:13:00;;;;;;;11.27;9.13;;;;;;;19.51;100.00;98366.13;4182913;28;20319;-73
2023/06/26 06:15:00;;;;;;;12.50;10.07;;;;;;;19.58;100.00;98363.94;4172519;28;20389;-73
2023/06/26 06:17:01;;;;;;;11.68;9.10;;;;;;;19.66;100.00;98363.75;4173339;28;20041;-73
2023/06/26 06:19:03;;;;;;;15.88;10.25;;;;;;;19.70;100.00;98358.84;4181976;28;20047;-73
2023/06/26 06:21:03;;;;;;;11.57;9.00;;;;;;;19.77;100.00;98353.03;4179585;28;20041;-73
2023/06/26 06:23:04;;;;;;;10.75;8.43;;;;;;;19.84;100.00;98355.63;4172394;28;20044;-73
2023/06/26 06:25:04;;;;;;;11.30;8.68;;;;;;;19.93;100.00;98353.75;4187254;28;20381;-73
2023/06/26 06:27:05;;;;;;;12.45;8.80;;;;;;;20.00;100.00;98354.81;4187796;28;20060;-73
2023/06/26 06:29:05;;;;;;;13.10;9.38;;;;;;;20.04;100.00;98347.88;4187620;28;20483;-73
2023/06/26 06:31:06;;;;;;;11.23;8.20;;;;;;;20.12;100.00;98352.03;4187016;28;20157;-73
2023/06/26 06:33:06;;;;;;;10.98;8.98;;;;;;;20.19;100.00;98348.25;4187452;28;20079;-73
2023/06/26 06:35:09;;;;;;;10.85;8.82;;;;;;;20.28;100.00;98358.81;4187372;28;20171;-73
2023/06/26 06:37:10;;;;;;;11.23;8.43;;;;;;;20.31;100.00;98347.47;4174707;28;20048;-73
2023/06/26 06:39:10;;;;;;;11.18;8.25;;;;;;;20.39;100.00;98353.66;4173145;28;20041;-73
2023/06/26 06:41:10;;;;;;;12.20;8.45;;;;;;;20.48;100.00;98351.00;4173243;28;20100;-73
2023/06/26 06:43:11;;;;;;;9.82;7.85;;;;;;;20.59;100.00;98350.66;4181558;28;20123;-73
2023/06/26 06:45:11;;;;;;;10.07;7.13;;;;;;;20.68;100.00;98347.97;4176060;28;20283;-73
2023/06/26 06:47:11;;;;;;;9.00;7.47;;;;;;;20.79;100.00;98350.47;4184217;28;20032;-73
2023/06/26 06:49:12;;;;;;;8.73;6.97;;;;;;;20.86;100.00;98342.59;4187877;28;20373;-73
2023/06/26 06:51:12;;;;;;;8.65;6.93;;;;;;;20.95;100.00;98348.31;4188431;28;20036;-73
2023/06/26 06:53:13;;;;;;;8.90;6.60;;;;;;;21.10;100.00;98347.84;4186370;28;20050;-73
2023/06/26 06:55:13;;;;;;;9.45;7.32;;;;;;;21.17;100.00;98342.78;4178551;28;20068;-73
2023/06/26 06:57:14;;;;;;;10.18;6.80;;;;;;;21.25;100.00;98348.94;4173178;28;20102;-73
2023/06/26 06:59:14;;;;;;;7.43;6.63;;;;;;;21.36;100.00;98340.97;4173146;28;20033;-73
2023/06/26 07:01:14;;;;;;;9.88;5.82;;;;;;;21.42;100.00;98333.50;4173524;28;20418;-73
2023/06/26 07:03:15;;;;;;;9.70;6.80;;;;;;;21.55;100.00;98341.94;4172301;28;20056;-73
2023/06/26 07:05:16;;;;;;;7.63;6.30;;;;;;;21.65;100.00;98335.13;4172860;28;20041;-73
2023/06/26 07:07:18;;;;;;;8.10;6.00;;;;;;;21.76;100.00;98326.28;4172911;28;20068;-73
2023/06/26 07:09:19;;;;;;;9.05;6.10;;;;;;;21.90;100.00;98328.59;4173079;28;20051;-73
2023/06/26 07:11:19;;;;;;;7.72;6.22;;;;;;;22.08;100.00;98333.59;4185309;28;20064;-73
2023/06/26 07:13:19;;;;;;;9.55;6.45;;;;;;;22.17;100.00;98325.22;4180358;28;20116;-73
2023/06/26 07:15:20;;;;;;;7.93;6.07;;;;;;;22.24;98.88;98319.31;4188516;28;20076;-73
2023/06/26 07:17:21;;;;;;;7.55;6.50;;;;;;;22.38;98.15;98315.19;4186984;28;20040;-73
2023/06/26 07:19:21;;;;;;;9.00;6.28;;;;;;;22.46;98.23;98307.22;4177975;28;20102;-73
2023/06/26 07:21:22;;;;;;;7.30;6.07;;;;;;;22.57;99.43;98316.81;4172715;28;20072;-73
2023/06/26 07:23:22;;;;;;;9.75;6.32;;;;;;;22.70;98.20;98311.88;4173066;28;20120;-73
2023/06/26 07:25:22;;;;;;;8.70;5.90;;;;;;;22.86;98.43;98310.88;4172519;28;20252;-73
2023/06/26 07:27:22;;;;;;;6.72;5.97;;;;;;;22.97;97.15;98316.84;4172472;28;20025;-73
2023/06/26 07:29:23;;;;;;;8.18;6.10;;;;;;;23.11;98.68;98309.84;4173319;28;20099;-73
2023/06/26 07:31:23;;;;;;;7.82;5.93;;;;;;;23.30;94.56;98312.69;4172424;28;20523;-73
2023/06/26 07:33:24;;;;;;;9.57;6.07;;;;;;;23.40;93.83;98312.22;4181018;28;20522;-74
2023/06/26 07:35:27;;;;;;;7.70;5.93;;;;;;;23.48;92.59;98307.84;4178542;28;20060;-73
2023/06/26 07:37:27;;;;;;;6.30;5.65;;;;;;;23.63;89.07;98307.25;4172646;28;20045;-74
2023/06/26 07:39:27;;;;;;;7.35;5.32;;;;;;;23.78;87.45;98308.22;4172686;28;20371;-73
2023/06/26 07:41:30;;;;;;;9.18;5.75;;;;;;;23.91;85.57;98305.97;4172637;28;20440;-73
2023/06/26 07:43:31;;;;;;;;;;;;;;;24.07;86.02;98316.94;4178986;28;20045;-73
2023/06/26 07:45:31;;;;;;;5.18;4.53;;;;;;;24.35;79.45;98306.41;4173957;28;19949;-73
2023/06/26 07:47:31;;;;;;;5.72;5.13;;;;;;;24.63;79.24;98309.16;4174701;28;20065;-73
2023/06/26 07:49:32;;;;;;;6.45;5.10;;;;;;;24.86;76.59;98307.63;4175686;28;20080;-73
2023/06/26 07:51:32;;;;;;;5.93;4.85;;;;;;;25.07;76.17;98303.78;4189677;28;20164;-73
2023/06/26 07:53:32;;;;;;;5.78;4.80;;;;;;;25.21;77.14;98303.06;4190295;28;20053;-73
2023/06/26 07:55:32;;;;;;;7.15;4.72;;;;;;;25.38;72.55;98299.81;4189738;28;20037;-73
2023/06/26 07:57:33;;;;;;;6.68;4.93;;;;;;;25.58;69.70;98297.16;4186665;28;20045;-73
2023/06/26 07:59:33;;;;;;;6.55;4.53;;;;;;;25.68;69.81;98295.78;4175554;28;20139;-73
2023/06/26 08:01:34;;;;;;;5.10;4.60;;;;;;;25.73;71.32;98291.53;4175586;28;20131;-73
2023/06/26 08:03:34;;;;;;;6.60;4.75;;;;;;;25.82;70.43;98293.50;4174793;28;20439;-73
2023/06/26 08:05:35;;;;;;;5.18;4.35;;;;;;;25.90;68.69;98284.16;4175182;28;20123;-73
2023/06/26 08:07:35;;;;;;;7.18;4.85;;;;;;;25.99;69.46;98283.28;4175105;28;20044;-73
2023/06/26 08:09:35;;;;;;;6.65;4.82;;;;;;;26.09;67.01;98292.47;4175410;28;20057;-73
2023/06/26 08:11:36;;;;;;;5.35;4.82;;;;;;;26.15;65.64;98288.47;4175251;28;20056;-73
2023/06/26 08:13:36;;;;;;;7.00;5.05;;;;;;;26.19;66.02;98280.53;4174586;28;20076;-73
2023/06/26 08:15:37;;;;;;;8.52;5.35;;;;;;;26.24;64.79;98276.25;4175120;28;20032;-73
2023/06/26 08:17:38;;;;;;;6.15;5.00;;;;;;;26.30;64.73;98286.38;4175522;28;20095;-73
2023/06/26 08:19:38;;;;;;;5.15;4.60;;;;;;;26.32;65.59;98278.19;4175135;28;20079;-74
2023/06/26 08:21:43;;;;;;;5.90;4.80;;;;;;;26.24;65.98;98274.19;4178702;28;20076;-74
2023/06/26 08:23:44;;;;;;;5.97;4.60;;;;;;;26.31;63.00;98281.50;4188060;28;20411;-73
2023/06/26 08:25:44;;;;;;;5.43;4.70;;;;;;;26.29;64.94;98275.53;4191078;28;20115;-73
2023/06/26 08:27:44;;;;;;;6.65;4.90;;;;;;;26.28;66.70;98271.94;4189787;28;20060;-73
2023/06/26 08:29:45;;;;;;;5.93;5.10;;;;;;;26.39;65.54;98277.03;4189373;28;20493;-73
2023/06/26 08:31:45;;;;;;;7.45;4.63;;;;;;;26.53;64.08;98275.44;4184962;28;20052;-73
2023/06/26 08:33:46;;;;;;;8.27;5.30;;;;;;;26.67;64.03;98273.88;4173964;28;20500;-73
2023/06/26 08:35:46;;;;;;;7.63;5.38;;;;;;;26.75;65.70;98281.47;4174973;28;20492;-73
2023/06/26 08:37:46;;;;;;;6.78;5.32;;;;;;;26.76;62.54;98274.53;4174737;28;20033;-73
2023/06/26 08:39:48;;;;;;;6.30;5.22;;;;;;;26.86;61.26;98281.66;4179412;28;20032;-73
2023/06/26 08:41:48;;;;;;;6.60;5.00;;;;;;;26.94;62.11;98273.50;4189050;28;20532;-73
2023/06/26 08:43:50;;;;;;;6.05;5.15;;;;;;;26.98;62.65;98276.16;4174277;28;20077;-73
2023/06/26 08:45:54;;;;;;;;;;;;;;;27.09;62.57;98282.00;4175867;28;20044;-74
2023/06/26 08:47:59;;;;;;;5.72;5.13;;;;;;;27.11;61.42;98280.22;4174714;28;19909;-73
2023/06/26 08:50:12;;;;;;;6.75;4.95;;;;;;;27.22;60.32;98285.25;4174856;28;20789;-73
2023/06/26 08:52:41;;;;;;;8.77;5.15;;;;;;;27.42;58.32;98279.59;4174502;28;20459;-73
2023/06/26 08:54:47;;;;;;;5.97;5.32;;;;;;;27.46;59.04;98285.06;4144851;28;20045;-73
2023/06/26 08:56:49;;;;;;;7.05;5.18;;;;;;;27.48;57.15;98281.75;4174882;28;20263;-73
2023/06/26 08:58:50;;;;;;;6.68;4.47;;;;;;;27.55;56.34;98282.06;4174366;28;20071;-73
2023/06/26 09:00:51;;;;;;;5.75;5.03;;;;;;;27.54;57.70;98283.34;4174662;28;20045;-74
2023/06/26 09:02:51;;;;;;;6.57;5.68;;;;;;;27.47;57.42;98280.94;4181970;28;20041;-73
2023/06/26 09:04:52;;;;;;;6.63;4.93;;;;;;;27.43;58.01;98275.47;4189952;28;20044;-73
2023/06/26 09:06:52;;;;;;;6.95;5.30;;;;;;;27.38;56.09;98279.03;4184646;28;20049;-74
2023/06/26 09:08:52;;;;;;;5.97;5.35;;;;;;;27.37;58.94;98282.38;4174481;28;20129;-74
2023/06/26 09:10:53;;;;;;;8.85;5.43;;;;;;;27.42;57.80;98290.97;4174917;28;20049;-74
2023/06/26 09:13:01;;;;;;;5.97;5.32;;;;;;;27.45;58.21;98274.97;4178470;28;20110;-74
2023/06/26 09:15:03;;;;;;;6.32;5.05;;;;;;;27.54;57.67;98274.81;4188461;28;20040;-74
2023/06/26 09:17:03;;;;;;;6.93;5.05;;;;;;;27.60;58.07;98283.44;4174466;28;20045;-74
2023/06/26 09:19:04;;;;;;;8.63;5.38;;;;;;;27.62;57.86;98286.53;4187968;28;20032;-74
2023/06/26 09:21:07;;;;;;;6.28;5.18;;;;;;;27.65;57.84;98283.50;4180163;28;20053;-73
2023/06/26 09:23:08;;;;;;;5.50;4.95;;;;;;;27.65;56.85;98274.97;4178465;28;20052;-73